createdAt,value
2023-01-19T00:00:32.077Z,9.38
2023-01-19T00:02:58.780Z,9.46
2023-01-19T00:05:25.435Z,9.30
2023-01-19T00:07:52.031Z,8.97
2023-01-19T00:10:18.731Z,9.15
2023-01-19T00:12:45.283Z,9.13
2023-01-19T00:15:12.088Z,9.09
2023-01-19T00:17:41.097Z,8.97
2023-01-19T00:20:09.543Z,8.97
2023-01-19T00:22:36.167Z,8.74
2023-01-19T00:25:03.559Z,8.65
2023-01-19T00:27:34.870Z,8.83
2023-01-19T00:30:02.109Z,8.73
2023-01-19T00:32:28.896Z,8.55
2023-01-19T00:34:55.473Z,8.69
2023-01-19T00:37:22.117Z,8.75
2023-01-19T00:39:48.804Z,8.75
2023-01-19T00:42:34.164Z,8.17
2023-01-19T00:45:00.701Z,8.91
2023-01-19T00:47:27.363Z,8.25
2023-01-19T00:49:53.953Z,8.49
2023-01-19T00:52:20.608Z,8.49
2023-01-19T00:54:47.197Z,8.55
2023-01-19T00:57:15.752Z,8.15
2023-01-19T00:59:42.577Z,8.02
2023-01-19T01:02:09.376Z,8.30
2023-01-19T01:04:36.064Z,8.07
2023-01-19T01:07:02.861Z,8.09
2023-01-19T01:09:29.875Z,8.22
2023-01-19T01:11:57.325Z,8.18
2023-01-19T01:14:24.430Z,7.71
2023-01-19T01:16:51.162Z,8.19
2023-01-19T01:19:17.839Z,8.27
2023-01-19T01:21:44.543Z,8.19
2023-01-19T01:24:11.186Z,7.94
2023-01-19T01:26:37.785Z,7.73
2023-01-19T01:29:06.406Z,7.00
2023-01-19T01:31:33.054Z,7.82
2023-01-19T01:33:59.608Z,7.85
2023-01-19T01:36:29.174Z,7.87
2023-01-19T01:38:55.883Z,8.01
2023-01-19T01:41:22.480Z,8.02
2023-01-19T01:43:56.616Z,7.93
2023-01-19T01:46:23.209Z,7.48
2023-01-19T01:48:57.739Z,7.69
2023-01-19T01:51:47.674Z,7.87
2023-01-19T01:54:28.231Z,7.78
2023-01-19T01:56:59.663Z,7.73
2023-01-19T01:59:39.143Z,7.71
2023-01-19T02:02:40.056Z,7.10
2023-01-19T02:05:10.817Z,7.05
2023-01-19T02:08:17.184Z,7.64
2023-01-19T02:11:03.252Z,7.62
2023-01-19T02:13:31.257Z,7.25
2023-01-19T02:16:01.390Z,7.60
2023-01-19T02:18:30.107Z,7.22
2023-01-19T02:21:20.211Z,7.55
2023-01-19T02:23:57.045Z,7.52
2023-01-19T02:26:27.271Z,7.37
2023-01-19T02:28:59.011Z,7.57
2023-01-19T02:31:26.881Z,7.53
2023-01-19T02:33:54.263Z,7.39
2023-01-19T02:36:26.014Z,7.44
2023-01-19T02:38:56.265Z,6.96
2023-01-19T02:41:30.756Z,7.18
2023-01-19T02:43:58.892Z,7.21
2023-01-19T02:46:26.171Z,7.28
2023-01-19T02:48:52.733Z,5.41
2023-01-19T02:51:24.298Z,7.35
2023-01-19T02:54:09.083Z,7.35
2023-01-19T02:56:45.632Z,7.20
2023-01-19T02:59:31.491Z,7.02
2023-01-19T03:02:44.679Z,6.94
2023-01-19T03:05:30.132Z,6.90
2023-01-19T03:08:17.581Z,6.85
2023-01-19T03:10:44.074Z,6.85
2023-01-19T03:13:31.859Z,6.89
2023-01-19T03:16:15.330Z,6.98
2023-01-19T03:18:46.444Z,6.94
2023-01-19T03:21:15.099Z,6.88
2023-01-19T03:23:45.411Z,6.81
2023-01-19T03:26:17.709Z,6.26
2023-01-19T03:28:47.510Z,6.78
2023-01-19T03:31:19.305Z,6.07
2023-01-19T03:33:51.639Z,6.60
2023-01-19T03:36:36.660Z,6.61
2023-01-19T03:39:05.766Z,6.51
2023-01-19T03:41:34.871Z,6.42
2023-01-19T03:44:02.721Z,5.90
2023-01-19T03:46:30.952Z,5.91
2023-01-19T03:48:59.372Z,6.38
2023-01-19T03:51:26.456Z,5.80
2023-01-19T03:53:53.061Z,6.46
2023-01-19T03:56:25.276Z,6.09
2023-01-19T03:58:52.348Z,6.39
2023-01-19T04:01:23.025Z,6.22
2023-01-19T04:03:50.705Z,6.35
2023-01-19T04:06:17.437Z,6.12
2023-01-19T04:08:44.101Z,6.08
2023-01-19T04:11:10.736Z,6.05
2023-01-19T04:13:37.355Z,6.09
2023-01-19T04:16:05.130Z,5.51
2023-01-19T04:18:33.905Z,5.65
2023-01-19T04:21:06.440Z,6.07
2023-01-19T04:23:33.958Z,5.68
2023-01-19T04:26:03.932Z,6.22
2023-01-19T04:28:31.282Z,6.20
2023-01-19T04:30:58.130Z,6.17
2023-01-19T04:33:25.479Z,6.12
2023-01-19T04:35:54.457Z,6.08
2023-01-19T04:38:21.434Z,6.18
2023-01-19T04:40:49.953Z,6.14
2023-01-19T04:43:16.952Z,6.23
2023-01-19T04:45:44.828Z,3.71
2023-01-19T04:48:12.406Z,6.03
2023-01-19T04:50:39.116Z,6.05
2023-01-19T04:53:05.895Z,5.91
2023-01-19T04:55:32.491Z,5.75
2023-01-19T04:57:59.451Z,6.10
2023-01-19T05:00:26.861Z,6.14
2023-01-19T05:02:53.956Z,6.14
2023-01-19T05:05:20.671Z,6.03
2023-01-19T05:07:47.284Z,6.08
2023-01-19T05:10:13.924Z,5.92
2023-01-19T05:12:42.094Z,5.68
2023-01-19T05:15:09.719Z,5.88
2023-01-19T05:17:36.638Z,5.89
2023-01-19T05:20:04.422Z,5.68
2023-01-19T05:22:31.253Z,5.86
2023-01-19T05:24:58.082Z,5.77
2023-01-19T05:27:24.671Z,5.45
2023-01-19T05:29:51.275Z,5.68
2023-01-19T05:32:17.831Z,5.61
2023-01-19T05:34:44.457Z,5.66
2023-01-19T05:37:11.624Z,5.69
2023-01-19T05:39:38.195Z,5.71
2023-01-19T05:42:04.980Z,5.60
2023-01-19T05:44:31.582Z,5.47
2023-01-19T05:46:58.389Z,5.44
2023-01-19T05:49:25.105Z,5.52
2023-01-19T05:51:51.660Z,5.55
2023-01-19T05:54:18.797Z,5.40
2023-01-19T05:56:45.711Z,5.64
2023-01-19T05:59:13.295Z,5.67
2023-01-19T06:01:40.452Z,5.71
2023-01-19T06:04:07.268Z,5.76
2023-01-19T06:06:33.927Z,5.42
2023-01-19T06:09:00.556Z,5.83
2023-01-19T06:11:27.195Z,5.86
2023-01-19T06:13:54.073Z,5.94
2023-01-19T06:16:20.692Z,5.88
2023-01-19T06:18:47.353Z,5.85
2023-01-19T06:21:14.426Z,5.87
2023-01-19T06:23:41.366Z,5.78
2023-01-19T06:26:08.056Z,6.01
2023-01-19T06:28:34.657Z,6.04
2023-01-19T06:31:01.923Z,5.31
2023-01-19T06:33:28.761Z,6.32
2023-01-19T06:35:55.846Z,6.21
2023-01-19T06:38:22.987Z,6.02
2023-01-19T06:40:54.818Z,6.10
2023-01-19T06:43:21.864Z,6.25
2023-01-19T06:45:48.889Z,6.42
2023-01-19T06:48:16.121Z,6.53
2023-01-19T06:50:45.726Z,6.48
2023-01-19T06:53:12.539Z,6.53
2023-01-19T06:55:39.323Z,6.20
2023-01-19T06:58:06.571Z,6.26
2023-01-19T07:00:33.217Z,6.74
2023-01-19T07:03:00.167Z,6.41
2023-01-19T07:05:27.072Z,6.71
2023-01-19T07:07:55.202Z,6.76
2023-01-19T07:10:23.140Z,6.34
2023-01-19T07:12:49.932Z,6.98
2023-01-19T07:15:19.717Z,6.75
2023-01-19T07:17:46.381Z,6.93
2023-01-19T07:20:14.537Z,7.22
2023-01-19T07:22:43.546Z,7.32
2023-01-19T07:25:10.442Z,7.62
2023-01-19T07:27:37.102Z,7.53
2023-01-19T07:30:04.668Z,7.38
2023-01-19T07:32:31.287Z,7.98
2023-01-19T07:34:57.852Z,7.89
2023-01-19T07:37:25.598Z,8.47
2023-01-19T07:39:52.306Z,8.75
2023-01-19T07:42:19.071Z,8.90
2023-01-19T07:44:45.682Z,9.02
2023-01-19T07:47:12.846Z,8.59
2023-01-19T07:49:39.847Z,9.35
2023-01-19T07:52:06.454Z,9.10
2023-01-19T07:54:33.723Z,9.84
2023-01-19T07:57:03.232Z,9.48
2023-01-19T07:59:31.539Z,9.87
2023-01-19T08:01:59.769Z,10.46
2023-01-19T08:04:28.002Z,10.66
2023-01-19T08:06:56.034Z,10.88
2023-01-19T08:09:24.440Z,10.78
2023-01-19T08:11:51.031Z,10.73
2023-01-19T08:14:17.851Z,11.11
2023-01-19T08:16:44.662Z,10.96
2023-01-19T08:19:11.310Z,11.53
2023-01-19T08:21:39.035Z,11.47
2023-01-19T08:24:06.118Z,12.15
2023-01-19T08:26:35.176Z,10.44
2023-01-19T08:29:04.988Z,12.83
2023-01-19T08:31:31.885Z,12.74
2023-01-19T08:33:58.812Z,13.06
2023-01-19T08:36:25.596Z,13.58
2023-01-19T08:38:52.390Z,14.07
2023-01-19T08:41:19.153Z,14.04
2023-01-19T08:43:45.778Z,14.73
2023-01-19T08:46:12.423Z,14.79
2023-01-19T08:48:40.002Z,15.28
2023-01-19T08:51:06.741Z,15.04
2023-01-19T08:53:33.411Z,15.50
2023-01-19T08:56:01.297Z,15.54
2023-01-19T08:58:28.770Z,15.70
2023-01-19T09:00:55.505Z,16.04
2023-01-19T09:03:25.459Z,16.15
2023-01-19T09:05:52.172Z,16.39
2023-01-19T09:08:19.248Z,16.45
2023-01-19T09:10:48.915Z,16.58
2023-01-19T09:13:16.226Z,16.70
2023-01-19T09:15:43.630Z,16.77
2023-01-19T09:18:14.165Z,16.76
2023-01-19T09:20:42.701Z,16.30
2023-01-19T09:23:14.531Z,16.77
2023-01-19T09:25:43.959Z,16.77
2023-01-19T09:28:12.820Z,16.60
2023-01-19T09:30:41.339Z,16.97
2023-01-19T09:33:11.217Z,16.92
2023-01-19T09:35:39.689Z,16.92
2023-01-19T09:38:10.552Z,16.94
2023-01-19T09:40:48.279Z,16.88
2023-01-19T09:43:24.420Z,17.00
2023-01-19T09:45:59.109Z,16.94
2023-01-19T09:48:45.851Z,17.13
2023-01-19T09:51:16.840Z,17.35
2023-01-19T09:54:08.112Z,17.25
2023-01-19T09:56:34.971Z,17.11
2023-01-19T09:59:03.110Z,17.23
2023-01-19T10:01:55.603Z,17.29
2023-01-19T10:05:02.512Z,17.40
2023-01-19T10:07:54.434Z,17.59
2023-01-19T10:10:24.672Z,17.65
2023-01-19T10:12:51.819Z,17.75
2023-01-19T10:15:36.988Z,17.81
2023-01-19T10:18:16.479Z,17.86
2023-01-19T10:21:05.697Z,18.01
2023-01-19T10:23:41.341Z,17.97
2023-01-19T10:26:22.086Z,18.17
2023-01-19T10:28:52.916Z,18.11
2023-01-19T10:31:23.482Z,18.17
2023-01-19T10:33:51.211Z,18.15
2023-01-19T10:36:21.302Z,18.14
2023-01-19T10:38:48.722Z,18.24
2023-01-19T10:41:19.870Z,18.23
2023-01-19T10:43:47.798Z,17.63
2023-01-19T10:46:31.110Z,18.22
2023-01-19T10:48:57.968Z,18.34
2023-01-19T10:51:24.837Z,18.43
2023-01-19T10:54:13.418Z,18.28
2023-01-19T10:56:40.838Z,18.22
2023-01-19T10:59:27.849Z,18.33
2023-01-19T11:02:21.877Z,18.30
2023-01-19T11:04:52.815Z,18.16
2023-01-19T11:07:26.569Z,18.43
2023-01-19T11:10:16.360Z,18.28
2023-01-19T11:12:52.388Z,18.05
2023-01-19T11:15:28.331Z,18.10
2023-01-19T11:17:55.170Z,17.86
2023-01-19T11:20:29.433Z,17.77
2023-01-19T11:23:18.433Z,17.58
2023-01-19T11:25:47.968Z,17.57
2023-01-19T11:28:35.980Z,17.35
2023-01-19T11:31:14.894Z,17.35
2023-01-19T11:33:49.793Z,17.28
2023-01-19T11:36:27.631Z,17.25
2023-01-19T11:39:00.032Z,17.08
2023-01-19T11:41:29.939Z,17.00
2023-01-19T11:44:19.417Z,17.28
2023-01-19T11:46:50.238Z,16.91
2023-01-19T11:49:38.616Z,17.28
2023-01-19T11:52:08.010Z,17.21
2023-01-19T11:54:47.598Z,17.33
2023-01-19T11:57:17.211Z,17.42
2023-01-19T11:59:44.829Z,17.64
2023-01-19T12:02:23.217Z,17.66
2023-01-19T12:04:51.837Z,17.65
2023-01-19T12:07:25.947Z,17.26
2023-01-19T12:09:58.955Z,17.67
2023-01-19T12:12:25.508Z,17.77
2023-01-19T12:15:04.424Z,17.66
2023-01-19T12:17:38.129Z,17.60
2023-01-19T12:20:15.134Z,17.67
2023-01-19T12:22:50.216Z,17.71
2023-01-19T12:25:24.932Z,18.00
2023-01-19T12:27:52.225Z,18.03
2023-01-19T12:30:22.388Z,15.47
2023-01-19T12:32:51.246Z,17.87
2023-01-19T12:36:06.032Z,18.42
2023-01-19T12:38:44.424Z,18.50
2023-01-19T12:41:30.162Z,18.53
2023-01-19T12:44:12.159Z,18.73
2023-01-19T12:46:55.143Z,18.76
2023-01-19T12:49:21.895Z,18.93
2023-01-19T12:51:50.880Z,18.82
2023-01-19T12:54:31.654Z,16.66
2023-01-19T12:57:08.466Z,18.55
2023-01-19T12:59:39.516Z,18.57
2023-01-19T13:02:18.141Z,18.33
2023-01-19T13:05:15.934Z,18.18
2023-01-19T13:08:07.776Z,17.98
2023-01-19T13:10:56.001Z,18.03
2023-01-19T13:13:36.799Z,17.52
2023-01-19T13:16:18.858Z,17.85
2023-01-19T13:19:15.013Z,17.22
2023-01-19T13:21:44.762Z,17.36
2023-01-19T13:24:22.487Z,17.55
2023-01-19T13:26:49.119Z,17.44
2023-01-19T13:29:33.933Z,17.45
2023-01-19T13:32:03.930Z,17.39
2023-01-19T13:34:40.178Z,17.36
2023-01-19T13:37:16.095Z,16.68
2023-01-19T13:39:44.963Z,16.76
2023-01-19T13:42:17.006Z,17.03
2023-01-19T13:44:52.420Z,16.77
2023-01-19T13:47:24.510Z,17.06
2023-01-19T13:50:01.413Z,17.07
2023-01-19T13:52:29.448Z,16.95
2023-01-19T13:55:03.384Z,16.94
2023-01-19T13:57:31.707Z,16.94
2023-01-19T14:00:29.351Z,16.85
2023-01-19T14:03:04.904Z,16.89
2023-01-19T14:05:40.292Z,16.89
2023-01-19T14:08:14.936Z,16.93
2023-01-19T14:10:53.508Z,16.85
2023-01-19T14:13:34.688Z,16.78
2023-01-19T14:16:06.643Z,16.67
2023-01-19T14:18:34.922Z,16.20
2023-01-19T14:21:08.917Z,16.50
2023-01-19T14:23:47.767Z,16.22
2023-01-19T14:26:43.108Z,16.11
2023-01-19T14:29:18.726Z,15.98
2023-01-19T14:31:51.844Z,15.87
2023-01-19T14:34:35.188Z,15.62
2023-01-19T14:37:04.049Z,15.62
2023-01-19T14:39:34.337Z,15.04
2023-01-19T14:42:04.596Z,15.52
2023-01-19T14:44:37.049Z,15.44
2023-01-19T14:47:05.368Z,15.36
2023-01-19T14:49:36.392Z,15.25
2023-01-19T14:52:06.825Z,15.24
2023-01-19T14:54:40.659Z,15.21
2023-01-19T14:57:15.030Z,14.95
2023-01-19T14:59:46.895Z,14.99
2023-01-19T15:02:13.678Z,14.91
2023-01-19T15:04:40.252Z,14.91
2023-01-19T15:07:11.457Z,14.47
2023-01-19T15:09:38.069Z,14.78
2023-01-19T15:12:04.984Z,14.63
2023-01-19T15:14:31.623Z,14.48
2023-01-19T15:16:59.069Z,14.34
2023-01-19T15:19:25.701Z,14.26
2023-01-19T15:21:52.365Z,14.29
2023-01-19T15:24:18.949Z,14.24
2023-01-19T15:26:45.678Z,14.12
2023-01-19T15:29:26.599Z,13.96
2023-01-19T15:31:53.356Z,13.73
2023-01-19T15:34:20.028Z,13.82
2023-01-19T15:36:46.611Z,13.78
2023-01-19T15:39:13.202Z,13.90
2023-01-19T15:41:40.551Z,13.93
2023-01-19T15:44:10.756Z,13.95
2023-01-19T15:46:38.047Z,13.77
2023-01-19T15:49:05.846Z,13.75
2023-01-19T15:51:32.974Z,13.60
2023-01-19T15:53:59.829Z,13.54
2023-01-19T15:56:29.533Z,13.38
2023-01-19T15:58:58.119Z,12.99
2023-01-19T16:01:33.977Z,13.10
2023-01-19T16:04:03.736Z,13.07
2023-01-19T16:06:31.507Z,13.04
2023-01-19T16:09:02.660Z,13.02
2023-01-19T16:11:31.502Z,12.95
2023-01-19T16:13:58.528Z,12.96
2023-01-19T16:16:26.735Z,13.02
2023-01-19T16:18:53.819Z,12.98
2023-01-19T16:21:20.536Z,12.91
2023-01-19T16:23:47.120Z,12.96
2023-01-19T16:26:25.619Z,13.04
2023-01-19T16:28:52.276Z,13.07
2023-01-19T16:31:18.817Z,12.99
2023-01-19T16:33:45.537Z,12.90
2023-01-19T16:36:29.991Z,12.51
2023-01-19T16:39:15.933Z,13.00
2023-01-19T16:41:43.810Z,12.97
2023-01-19T16:44:12.554Z,12.53
2023-01-19T16:46:41.935Z,12.96
2023-01-19T16:49:17.330Z,12.90
2023-01-19T16:51:44.235Z,12.74
2023-01-19T16:54:16.216Z,12.80
2023-01-19T16:56:43.322Z,12.70
2023-01-19T16:59:12.803Z,12.64
2023-01-19T17:01:40.263Z,12.56
2023-01-19T17:04:07.512Z,12.52
2023-01-19T17:06:34.103Z,12.39
2023-01-19T17:09:00.712Z,11.75
2023-01-19T17:11:31.721Z,12.23
2023-01-19T17:14:01.199Z,12.16
2023-01-19T17:16:29.090Z,12.18
2023-01-19T17:19:00.746Z,12.10
2023-01-19T17:21:28.158Z,12.07
2023-01-19T17:23:55.804Z,12.08
2023-01-19T17:26:28.342Z,11.94
2023-01-19T17:28:59.818Z,11.96
2023-01-19T17:31:26.857Z,12.03
2023-01-19T17:33:53.645Z,12.06
2023-01-19T17:36:23.052Z,12.07
2023-01-19T17:38:50.582Z,11.93
2023-01-19T17:41:21.200Z,12.07
2023-01-19T17:43:50.435Z,12.05
2023-01-19T17:46:19.108Z,11.85
2023-01-19T17:48:54.796Z,12.08
2023-01-19T17:51:23.068Z,12.07
2023-01-19T17:53:50.384Z,11.93
2023-01-19T17:56:18.665Z,11.97
2023-01-19T17:58:45.412Z,12.08
2023-01-19T18:01:13.444Z,12.13
2023-01-19T18:03:40.782Z,12.03
2023-01-19T18:06:08.145Z,12.06
2023-01-19T18:08:37.988Z,12.17
2023-01-19T18:11:04.824Z,12.13
2023-01-19T18:13:31.723Z,12.15
2023-01-19T18:16:00.342Z,12.16
2023-01-19T18:18:27.560Z,12.08
2023-01-19T18:20:58.526Z,11.70
2023-01-19T18:23:25.288Z,11.81
2023-01-19T18:25:58.685Z,11.74
2023-01-19T18:28:25.496Z,12.21
2023-01-19T18:30:52.461Z,11.60
2023-01-19T18:33:19.485Z,12.07
2023-01-19T18:35:47.002Z,11.64
2023-01-19T18:38:14.401Z,11.95
2023-01-19T18:40:41.376Z,11.95
2023-01-19T18:43:12.243Z,11.83
2023-01-19T18:45:42.005Z,11.91
2023-01-19T18:48:09.903Z,11.75
2023-01-19T18:50:37.936Z,11.65
2023-01-19T18:53:06.388Z,11.83
2023-01-19T18:55:33.364Z,11.95
2023-01-19T18:58:01.200Z,11.90
2023-01-19T19:00:28.226Z,11.87
2023-01-19T19:02:58.138Z,11.83
2023-01-19T19:05:29.527Z,11.53
2023-01-19T19:07:56.464Z,11.51
2023-01-19T19:10:24.368Z,11.86
2023-01-19T19:12:51.326Z,11.86
2023-01-19T19:15:19.344Z,11.49
2023-01-19T19:17:47.216Z,11.82
2023-01-19T19:20:14.551Z,11.94
2023-01-19T19:22:42.366Z,11.66
2023-01-19T19:25:10.611Z,12.02
2023-01-19T19:27:37.552Z,12.01
2023-01-19T19:30:07.128Z,11.99
2023-01-19T19:32:35.210Z,11.98
2023-01-19T19:35:04.111Z,12.07
2023-01-19T19:37:32.792Z,12.10
2023-01-19T19:40:01.458Z,12.14
2023-01-19T19:42:34.312Z,11.95
2023-01-19T19:45:05.362Z,12.17
2023-01-19T19:47:33.562Z,12.15
2023-01-19T19:50:01.757Z,12.22
2023-01-19T19:52:30.059Z,12.18
2023-01-19T19:54:58.433Z,12.06
2023-01-19T19:57:27.379Z,12.22
2023-01-19T19:59:56.249Z,12.14
2023-01-19T20:02:24.809Z,12.10
2023-01-19T20:04:53.502Z,11.94
2023-01-19T20:07:20.720Z,12.23
2023-01-19T20:09:49.176Z,12.16
2023-01-19T20:12:17.861Z,11.98
2023-01-19T20:14:46.385Z,12.06
2023-01-19T20:17:15.050Z,12.08
2023-01-19T20:19:43.673Z,12.09
2023-01-19T20:22:10.782Z,12.25
2023-01-19T20:24:38.893Z,12.02
2023-01-19T20:27:06.867Z,11.93
2023-01-19T20:29:33.788Z,12.36
2023-01-19T20:32:01.391Z,12.40
2023-01-19T20:34:33.309Z,12.44
2023-01-19T20:37:02.343Z,12.38
2023-01-19T20:39:33.946Z,12.22
2023-01-19T20:42:01.891Z,11.74
2023-01-19T20:44:32.033Z,12.41
2023-01-19T20:46:59.104Z,12.51
2023-01-19T20:49:26.328Z,12.46
2023-01-19T20:51:54.353Z,12.23
2023-01-19T20:54:27.139Z,12.52
2023-01-19T20:56:54.624Z,12.51
2023-01-19T20:59:21.826Z,12.51
2023-01-19T21:01:49.475Z,12.60
2023-01-19T21:04:17.847Z,12.10
2023-01-19T21:06:45.101Z,11.90
2023-01-19T21:09:11.922Z,12.51
2023-01-19T21:11:39.645Z,12.47
2023-01-19T21:14:07.590Z,12.48
2023-01-19T21:16:35.712Z,12.39
2023-01-19T21:19:03.224Z,12.46
2023-01-19T21:21:31.649Z,12.49
2023-01-19T21:24:00.675Z,12.45
2023-01-19T21:26:29.945Z,12.40
2023-01-19T21:29:01.060Z,12.35
2023-01-19T21:31:28.490Z,12.11
2023-01-19T21:33:56.372Z,11.82
2023-01-19T21:36:23.960Z,12.22
2023-01-19T21:38:52.282Z,12.25
2023-01-19T21:41:19.202Z,12.25
2023-01-19T21:43:46.315Z,12.23
2023-01-19T21:46:29.011Z,12.21
2023-01-19T21:48:57.599Z,12.34
2023-01-19T21:51:24.261Z,11.94
2023-01-19T21:53:56.117Z,11.60
2023-01-19T21:56:23.052Z,12.33
2023-01-19T21:58:49.678Z,12.42
2023-01-19T22:01:16.357Z,12.47
2023-01-19T22:03:43.132Z,12.47
2023-01-19T22:06:12.966Z,12.29
2023-01-19T22:08:40.691Z,12.69
2023-01-19T22:11:09.800Z,12.44
2023-01-19T22:13:38.676Z,12.53
2023-01-19T22:16:10.955Z,12.53
2023-01-19T22:18:39.371Z,12.47
2023-01-19T22:21:10.173Z,12.34
2023-01-19T22:23:37.538Z,12.27
2023-01-19T22:26:05.166Z,12.35
2023-01-19T22:28:32.114Z,12.34
2023-01-19T22:31:10.536Z,12.19
2023-01-19T22:33:37.262Z,11.89
2023-01-19T22:36:36.791Z,12.16
2023-01-19T22:39:08.826Z,11.89
2023-01-19T22:41:44.169Z,12.06
2023-01-19T22:44:22.309Z,12.15
2023-01-19T22:46:50.469Z,12.06
2023-01-19T22:49:18.271Z,12.10
2023-01-19T22:51:45.527Z,12.00
2023-01-19T22:54:12.856Z,11.81
2023-01-19T22:56:40.539Z,11.97
2023-01-19T22:59:07.383Z,11.87
2023-01-19T23:01:39.873Z,11.91
2023-01-19T23:04:07.774Z,11.93
2023-01-19T23:06:36.727Z,11.92
2023-01-19T23:09:10.591Z,11.84
2023-01-19T23:11:40.252Z,11.06
2023-01-19T23:14:08.085Z,11.85
2023-01-19T23:16:36.275Z,11.93
2023-01-19T23:19:03.576Z,11.97
2023-01-19T23:21:31.512Z,12.10
2023-01-19T23:24:02.760Z,12.10
2023-01-19T23:26:30.893Z,11.97
2023-01-19T23:29:00.301Z,11.97
2023-01-19T23:31:32.153Z,11.99
2023-01-19T23:34:01.554Z,11.93
2023-01-19T23:36:30.908Z,11.43
2023-01-19T23:39:00.637Z,11.71
2023-01-19T23:41:29.723Z,11.51
2023-01-19T23:43:56.662Z,11.60
2023-01-19T23:46:23.320Z,11.66
2023-01-19T23:48:50.321Z,11.37
2023-01-19T23:51:20.462Z,11.36
2023-01-19T23:53:47.814Z,11.69
2023-01-19T23:56:21.800Z,11.81
2023-01-19T23:58:53.393Z,11.82
